Latest Weather Observations for Swan Island

IDT60801

Issued at 10:31 am EST Wednesday 24 July 2024 (issued every 10 minutes, with the page automatically refreshed every 10 minutes)

About weather observations | Map of weather stations | Latest weather observations for TAS | Other Formats
Station Details ID: 092123 Name: SWAN ISLAND Lat: -40.73 Lon: 148.12 Height: 15.0 m
Data from the previous 72 hours. | See also: Recent months at Swan Island
Date/Time
EST
Temp
°C
App
Temp
°C
Dew
Point
°C
Rel
Hum
%
Delta-T
°C
Wind Press
QNH
hPa
Press
MSL
hPa
Rain since
9am
mm
Dir  Spd
km/h
Gust
km/h
Spd
kts
Gust
kts
24/10:00am 13.8 5.1 7.8 67 3.0 NW 43 54 23 29 1016.9 1016.9 0.0
24/09:30am 13.6 5.3 7.8 68 2.9 NW 41 52 22 28 1017.0 1017.0 0.0
24/09:00am 13.4 5.5 7.8 69 2.8 NW 39 48 21 26 1017.0 1017.0 0.0
24/08:30am 13.4 5.1 7.8 69 2.8 NW 41 52 22 28 1017.0 1017.0 0.0
24/08:00am 13.3 5.5 8.2 71 2.5 NW 39 48 21 26 1017.0 1017.0 0.0
24/07:30am 13.1 5.0 8.6 74 2.2 NNW 41 48 22 26 1017.0 1017.0 0.0
24/07:00am 13.2 4.7 8.7 74 2.3 NW 43 54 23 29 1016.6 1016.6 0.0
24/06:30am 13.2 4.5 8.5 73 2.3 NW 44 52 24 28 1016.3 1016.3 0.0
24/06:00am 13.1 5.4 8.8 75 2.2 NNW 39 46 21 25 1016.3 1016.3 0.0
24/05:30am 13.0 5.3 8.5 74 2.2 NW 39 46 21 25 1016.4 1016.4 0.0
24/05:00am 13.0 6.3 9.6 80 1.7 NNW 35 43 19 23 1016.5 1016.5 0.0
24/04:30am 12.9 6.6 9.7 81 1.6 NNW 33 39 18 21 1016.6 1016.6 0.0
24/04:00am 13.0 6.3 9.6 80 1.7 NNW 35 43 19 23 1016.7 1016.7 0.0
24/03:30am 12.9 5.8 9.5 80 1.7 NNW 37 43 20 23 1016.8 1016.8 0.0
24/03:00am 13.1 6.4 9.5 79 1.8 NNW 35 41 19 22 1017.1 1017.1 0.0
24/02:30am 13.2 6.0 9.1 76 2.1 NNW 37 44 20 24 1017.3 1017.3 0.0
24/02:00am 13.2 5.6 8.9 75 2.2 NNW 39 43 21 23 1017.5 1017.5 0.0
24/01:30am 13.2 5.3 9.3 77 2.0 NNW 41 46 22 25 1017.6 1017.6 0.0
24/01:00am 13.2 5.7 9.5 78 1.9 NNW 39 44 21 24 1017.7 1017.7 0.0
24/12:30am 13.0 6.3 9.8 81 1.6 NNW 35 43 19 23 1017.9 1017.9 0.0
24/12:00am 13.1 6.0 9.7 80 1.7 NNW 37 46 20 25 1018.1 1018.1 0.0
 
Date/Time
EST
Temp
°C
App
Temp
°C
Dew
Point
°C
Rel
Hum
%
Delta-T
°C
Wind Press
QNH
hPa
Press
MSL
hPa
Rain since
9am
mm
Dir  Spd
km/h
Gust
km/h
Spd
kts
Gust
kts
23/11:30pm 13.2 6.5 9.8 80 1.7 NNW 35 43 19 23 1018.2 1018.2 0.0
23/11:00pm 13.2 6.5 9.6 79 1.8 NNW 35 43 19 23 1018.4 1018.4 0.0
23/10:30pm 13.1 6.0 9.7 80 1.7 N 37 43 20 23 1018.5 1018.5 0.0
23/10:00pm 13.0 6.7 9.8 81 1.6 N 33 39 18 21 1018.7 1018.7 0.0
23/09:30pm 12.7 6.7 10.1 84 1.3 N 32 37 17 20 1018.8 1018.8 0.0
23/09:00pm 12.7 7.5 10.2 85 1.3 NNW 28 33 15 18 1018.8 1018.8 0.0
23/08:30pm 13.0 7.8 10.4 84 1.3 NNW 28 33 15 18 1018.9 1018.9 0.0
23/08:00pm 13.2 7.6 10.0 81 1.6 NNW 30 35 16 19 1019.0 1019.0 0.0
23/07:30pm 13.3 7.7 10.1 81 1.7 NNW 30 35 16 19 1019.0 1019.0 0.0
23/07:00pm 13.3 7.0 9.7 79 1.8 NW 33 41 18 22 1018.8 1018.8 0.0
23/06:30pm 13.4 6.7 9.6 78 1.9 NW 35 41 19 22 1018.5 1018.5 0.0
23/06:00pm 13.2 6.9 9.8 80 1.7 NW 33 39 18 21 1018.3 1018.3 0.0
23/05:30pm 13.2 6.5 9.6 79 1.8 NW 35 41 19 22 1018.0 1018.0 0.0
23/05:00pm 13.2 6.5 9.6 79 1.8 NW 35 43 19 23 1017.8 1017.8 0.0
23/04:30pm 13.4 7.1 9.8 79 1.8 NW 33 43 18 23 1017.9 1017.9 0.0
23/04:00pm 13.7 7.1 9.9 78 2.0 NW 35 50 19 27 1017.8 1017.8 0.0
23/03:30pm 14.0 7.8 10.2 78 2.0 NW 33 48 18 26 1017.9 1017.9 0.0
23/03:00pm 14.3 8.2 10.5 78 2.0 NW 33 46 18 25 1017.9 1017.9 0.0
23/02:30pm 14.3 8.4 10.5 78 2.0 NW 32 43 17 23 1018.0 1018.0 0.0
23/02:00pm 14.1 8.5 10.3 78 2.0 NW 30 41 16 22 1018.0 1018.0 0.0
23/01:30pm 14.1 7.6 10.5 79 1.9 NW 35 46 19 25 1018.1 1018.1 0.0
23/01:00pm 14.3 7.8 10.5 78 2.0 NW 35 46 19 25 1018.3 1018.3 0.0
23/12:30pm 15.1 8.7 10.7 75 2.3 NW 35 46 19 25 1018.5 1018.5 0.0
23/12:01pm 14.9 8.5 10.7 76 2.2 NW 35 54 19 29 1018.7 1018.7 0.0
23/12:00pm 14.9 8.6 10.9 77 2.1 NW 35 50 19 27 1018.8 1018.8 0.0
23/11:30am 14.9 8.9 10.9 77 2.1 NW 33 44 18 24 1019.1 1019.1 0.0
23/11:00am 15.0 10.1 11.4 79 1.9 NW 28 39 15 21 1019.4 1019.4 0.0
23/10:30am 14.7 9.9 11.5 81 1.7 NW 28 41 15 22 1019.6 1019.6 0.0
23/10:00am 14.5 9.7 11.5 82 1.6 NW 28 41 15 22 1019.6 1019.6 0.0
23/09:30am 14.4 9.2 11.6 83 1.5 NW 30 41 16 22 1019.5 1019.5 0.0
23/09:00am 13.8 9.0 11.7 87 1.1 NW 28 41 15 22 1019.4 1019.4 0.8
23/08:30am 13.3 7.7 11.5 89 1.0 NW 32 44 17 24 1019.3 1019.3 0.8
23/08:00am 13.3 7.8 11.9 91 0.7 WNW 32 39 17 21 1019.2 1019.2 0.8
23/07:30am 13.2 9.2 11.8 91 0.7 WNW 24 35 13 19 1019.2 1019.2 0.8
23/07:00am 13.1 9.2 12.0 93 0.6 NW 24 32 13 17 1019.1 1019.1 0.8
23/06:30am 13.2 7.7 11.8 91 0.7 NW 32 37 17 20 1018.8 1018.8 0.8
23/06:00am 13.3 8.1 11.7 90 0.9 NW 30 39 16 21 1018.5 1018.5 0.8
23/05:30am 13.3 8.2 11.9 91 0.7 NW 30 41 16 22 1017.9 1017.9 0.8
23/05:20am 13.3 7.7 11.5 89 1.0 NW 32 50 17 27 1017.6 1017.6 0.8
23/05:00am 13.3 7.1 11.5 89 1.0 NW 35 46 19 25 1017.8 1017.8 0.8
23/04:30am 13.2 8.0 11.6 90 0.9 NW 30 43 16 23 1017.9 1017.9 0.8
23/04:00am 13.1 9.2 12.0 93 0.6 NW 24 35 13 19 1017.9 1017.9 0.8
23/03:30am 13.0 8.4 12.2 95 0.4 NW 28 39 15 21 1018.0 1018.0 0.8
23/03:00am 12.9 8.7 12.4 97 0.3 NW 26 33 14 18 1018.2 1018.2 0.8
23/02:30am 13.0 7.4 12.2 95 0.4 NW 33 46 18 25 1018.2 1018.2 0.8
23/02:00am 13.4 6.6 12.0 91 0.8 NW 39 59 21 32 1018.1 1018.1 0.8
23/01:30am 13.2 7.3 12.3 94 0.5 NW 35 48 19 26 1018.3 1018.3 0.8
23/01:00am 13.2 7.7 12.3 94 0.5 NW 33 46 18 25 1018.2 1018.2 0.8
23/12:30am 13.0 7.6 12.2 95 0.4 NW 32 43 17 23 1018.3 1018.3 0.8
23/12:00am 13.1 7.6 12.3 95 0.4 NW 33 46 18 25 1018.4 1018.4 0.8
 
Date/Time
EST
Temp
°C
App
Temp
°C
Dew
Point
°C
Rel
Hum
%
Delta-T
°C
Wind Press
QNH
hPa
Press
MSL
hPa
Rain since
9am
mm
Dir  Spd
km/h
Gust
km/h
Spd
kts
Gust
kts
22/11:30pm 12.7 8.1 12.2 97 0.3 NW 28 39 15 21 1018.4 1018.4 0.8
22/11:00pm 12.8 6.1 12.3 97 0.3 NW 39 52 21 28 1018.3 1018.3 0.8
22/10:30pm 12.8 5.7 12.2 96 0.3 NW 41 50 22 27 1018.5 1018.5 0.8
22/10:00pm 12.9 6.1 11.8 93 0.6 NW 39 52 21 28 1018.3 1018.3 0.8
22/09:30pm 12.7 6.3 12.1 96 0.3 NW 37 54 20 29 1018.3 1018.3 0.6
22/09:00pm 13.1 5.5 11.7 91 0.7 NW 43 54 23 29 1018.1 1018.1 0.6
22/08:30pm 12.9 6.1 11.8 93 0.6 WNW 39 50 21 27 1017.9 1017.9 0.6
22/08:00pm 12.5 6.8 11.9 96 0.3 WNW 33 43 18 23 1017.9 1017.9 0.6
22/07:37pm 12.5 6.0 11.7 95 0.4 WNW 37 56 20 30 1017.7 1017.7 0.6
22/07:30pm 12.4 5.1 11.6 95 0.4 WNW 41 56 22 30 1017.7 1017.7 0.6
22/07:00pm 12.7 5.9 12.1 96 0.3 WNW 39 56 21 30 1017.5 1017.5 0.6
22/06:48pm 12.8 5.6 12.0 95 0.4 WNW 41 59 22 32 1017.6 1017.6 0.6
22/06:30pm 13.0 5.8 11.9 93 0.6 WNW 41 54 22 29 1017.3 1017.3 0.6
22/06:00pm 12.8 7.1 11.7 93 0.6 WNW 33 44 18 24 1017.0 1017.0 0.6
22/05:30pm 12.6 6.0 11.5 93 0.6 WNW 37 48 20 26 1016.8 1016.8 0.6
22/05:00pm 12.8 6.4 11.9 94 0.5 NW 37 48 20 26 1016.7 1016.7 0.6
22/04:30pm 12.8 6.7 11.9 94 0.5 WNW 35 46 19 25 1016.4 1016.4 0.6
22/04:00pm 13.2 6.8 11.9 92 0.7 WNW 37 48 20 26 1016.2 1016.2 0.6
22/03:30pm 12.9 7.3 12.0 94 0.5 WNW 33 50 18 27 1016.1 1016.1 0.6
22/03:26pm 12.9 7.5 12.1 95 0.4 WNW 32 50 17 27 1016.0 1016.0 0.4
22/03:00pm 13.1 7.4 11.7 91 0.7 WNW 33 41 18 22 1016.3 1016.3 0.4
22/02:30pm 13.0 6.9 11.7 92 0.7 WNW 35 46 19 25 1016.0 1016.0 0.4
22/02:00pm 12.8 7.7 12.0 95 0.4 WNW 30 43 16 23 1016.0 1016.0 0.4
22/01:30pm 13.3 7.0 12.4 94 0.5 NW 37 46 20 25 1016.0 1016.0 0.4
22/01:00pm 12.4 6.7 11.8 96 0.3 WNW 33 46 18 25 1016.4 1016.4 0.2
22/12:32pm 13.1 7.6 11.7 91 0.7 NW 32 57 17 31 1016.4 1016.4 0.0
22/12:30pm 13.1 7.9 11.7 91 0.7 NW 30 41 16 22 1016.5 1016.5 0.0
22/12:00pm 13.1 8.0 11.8 92 0.7 NW 30 46 16 25 1016.8 1016.8 0.0
22/11:30am 13.6 8.9 12.0 90 0.9 NW 28 39 15 21 1017.0 1017.0 0.0
22/11:00am 13.4 7.6 11.6 89 1.0 NW 33 43 18 23 1017.1 1017.1 0.0
22/10:30am 13.5 7.4 11.6 88 1.0 NW 35 50 19 27 1017.2 1017.2 0.0
22/10:00am 13.1 7.9 11.7 91 0.7 NW 30 39 16 21 1016.9 1016.9 0.0
22/09:30am 13.2 8.8 11.8 91 0.7 NW 26 35 14 19 1016.8 1016.8 0.0
22/09:00am 13.1 7.4 11.8 92 0.7 NW 33 41 18 22 1016.5 1016.5 0.4
22/08:30am 13.0 7.5 11.7 92 0.7 WNW 32 39 17 21 1016.4 1016.4 0.4
22/08:00am 12.9 7.7 11.6 92 0.7 NW 30 41 16 22 1016.0 1016.0 0.4
22/07:30am 12.7 7.9 11.6 93 0.6 NW 28 39 15 21 1015.6 1015.6 0.4
22/07:03am 12.9 7.3 11.6 92 0.7 NW 32 50 17 27 1015.5 1015.5 0.2
22/07:00am 13.0 7.2 11.4 90 0.8 NW 33 50 18 27 1015.5 1015.5 0.2
22/06:30am 13.0 8.2 11.6 91 0.7 NW 28 39 15 21 1015.2 1015.2 0.2
22/06:00am 12.9 7.6 11.3 90 0.8 NW 30 43 16 23 1014.9 1014.9 0.2
22/05:30am 13.0 6.7 11.2 89 0.9 WNW 35 46 19 25 1014.7 1014.7 0.2
22/05:00am 13.0 7.2 11.6 91 0.7 NW 33 43 18 23 1014.6 1014.6 0.2
22/04:30am 13.1 7.3 11.5 90 0.8 WNW 33 46 18 25 1014.4 1014.4 0.2
22/04:00am 13.1 6.9 11.3 89 1.0 NW 35 46 19 25 1014.4 1014.4 0.2
22/03:30am 13.0 7.2 11.4 90 0.8 NW 33 44 18 24 1014.2 1014.2 0.2
22/03:00am 13.0 6.0 11.4 90 0.8 NW 39 50 21 27 1014.0 1014.0 0.2
22/02:30am 12.8 5.8 11.4 91 0.7 NW 39 48 21 26 1013.8 1013.8 0.2
22/02:00am 12.8 7.0 11.4 91 0.7 NW 33 50 18 27 1013.8 1013.8 0.2
22/01:30am 12.8 6.5 11.2 90 0.8 NW 35 48 19 26 1013.6 1013.6 0.2
22/01:00am 12.8 7.0 11.4 91 0.7 NW 33 48 18 26 1013.8 1013.8 0.2
22/12:30am 12.8 6.9 11.2 90 0.8 NW 33 48 18 26 1013.9 1013.9 0.2
22/12:00am 12.8 6.5 11.2 90 0.8 NW 35 50 19 27 1014.1 1014.1 0.2
 
Date/Time
EST
Temp
°C
App
Temp
°C
Dew
Point
°C
Rel
Hum
%
Delta-T
°C
Wind Press
QNH
hPa
Press
MSL
hPa
Rain since
9am
mm
Dir  Spd
km/h
Gust
km/h
Spd
kts
Gust
kts
21/11:30pm 12.8 5.4 11.2 90 0.8 NW 41 56 22 30 1014.1 1014.1 0.2
21/11:00pm 12.7 6.2 11.6 93 0.6 NW 37 50 20 27 1014.0 1014.0 0.2
21/10:30pm 12.7 6.2 11.6 93 0.6 NW 37 50 20 27 1014.0 1014.0 0.2
21/10:19pm 12.7 6.6 11.6 93 0.6 NW 35 56 19 30 1014.1 1014.1 0.2
21/10:00pm 12.9 6.7 11.5 91 0.7 NW 35 46 19 25 1013.9 1013.9 0.2
21/09:30pm 12.7 6.5 11.3 91 0.7 NW 35 44 19 24 1014.1 1014.1 0.2
21/09:00pm 12.7 6.8 11.3 91 0.7 NW 33 43 18 23 1014.3 1014.3 0.2
21/08:30pm 12.6 6.7 11.3 92 0.7 NW 33 44 18 24 1014.2 1014.2 0.2
21/08:00pm 12.4 6.7 11.3 93 0.6 NW 32 43 17 23 1014.0 1014.0 0.0
21/07:30pm 12.5 5.5 11.1 91 0.7 NW 39 46 21 25 1014.0 1014.0 0.0
21/07:00pm 12.5 5.4 10.9 90 0.8 NW 39 48 21 26 1013.7 1013.7 0.0
21/06:30pm 12.4 5.3 10.8 90 0.8 NW 39 48 21 26 1013.5 1013.5 0.0
21/06:00pm 12.5 6.2 11.1 91 0.7 NW 35 44 19 24 1013.3 1013.3 0.0
21/05:30pm 12.4 6.5 11.1 92 0.7 NW 33 43 18 23 1013.1 1013.1 0.0
21/05:00pm 12.5 6.6 11.1 91 0.7 NW 33 43 18 23 1013.0 1013.0 0.0
21/04:30pm 12.6 5.8 10.8 89 0.9 WNW 37 46 20 25 1012.8 1012.8 0.0
21/04:00pm 12.7 5.6 10.8 88 1.0 NW 39 50 21 27 1012.5 1012.5 0.0
21/03:30pm 12.9 7.6 11.1 89 0.9 WNW 30 39 16 21 1012.6 1012.6 0.0
21/03:00pm 12.9 7.3 10.3 84 1.3 WNW 30 39 16 21 1012.6 1012.6 0.0
21/02:30pm 13.7 9.3 10.3 80 1.8 WNW 24 35 13 19 1012.5 1012.5 0.0
21/02:00pm 12.9 10.0 9.5 80 1.7 W 15 20 8 11 1012.7 1012.7 0.0
21/01:30pm 13.3 10.0 9.7 79 1.8 WNW 17 24 9 13 1012.5 1012.5 0.0
21/01:00pm 13.0 9.2 9.1 77 2.0 W 19 26 10 14 1012.9 1012.9 0.0
21/12:30pm 12.6 8.4 8.3 75 2.1 W 20 28 11 15 1013.3 1013.3 0.0
21/12:00pm 12.8 8.9 8.7 76 2.0 W 19 30 10 16 1013.5 1013.5 0.0
21/11:30am 11.9 6.0 7.4 74 2.2 W 28 33 15 18 1013.6 1013.6 0.0
21/11:00am 12.1 7.2 8.4 78 1.8 W 24 33 13 18 1013.7 1013.7 0.0

Other formats

Comma delimited format used in spreadsheet applications
http://www.bom.gov.au/fwo/IDT60801/IDT60801.95985.axf

JavaScript Object Notation format (JSON) in row-major order
http://www.bom.gov.au/fwo/IDT60801/IDT60801.95985.json

Data quality

Most of these data are generated automatically and are frequently updated. Quality checks on data are not normally performed. It is possible for incorrect values to appear. Refer to information at About Latest Weather Observations and please check the disclaimer before using these data.